createdAt,value
2019-01-27T00:01:16.316Z,53.90
2019-01-27T00:03:46.226Z,53.90
2019-01-27T00:06:16.028Z,53.90
2019-01-27T00:08:46.062Z,53.90
2019-01-27T00:11:16.026Z,53.90
2019-01-27T00:13:46.115Z,53.90
2019-01-27T00:16:16.167Z,53.90
2019-01-27T00:18:46.343Z,53.90
2019-01-27T00:21:16.393Z,53.90
2019-01-27T00:23:46.441Z,53.90
2019-01-27T00:26:16.473Z,53.80
2019-01-27T00:28:46.572Z,53.70
2019-01-27T00:31:16.609Z,53.70
2019-01-27T00:33:46.586Z,53.70
2019-01-27T00:36:16.584Z,53.70
2019-01-27T00:38:46.583Z,53.70
2019-01-27T00:41:16.674Z,53.70
2019-01-27T00:43:46.706Z,53.70
2019-01-27T00:46:16.972Z,53.70
2019-01-27T00:48:46.839Z,53.80
2019-01-27T00:51:16.856Z,53.80
2019-01-27T00:53:46.876Z,53.80
2019-01-27T00:56:16.755Z,53.80
2019-01-27T00:58:46.676Z,53.80
2019-01-27T01:01:16.555Z,53.70
2019-01-27T01:03:46.600Z,53.70
2019-01-27T01:06:16.978Z,53.70
2019-01-27T01:08:47.092Z,53.70
2019-01-27T01:11:17.134Z,53.50
2019-01-27T01:13:47.715Z,53.60
2019-01-27T01:16:18.151Z,53.80
2019-01-27T01:18:48.250Z,53.70
2019-01-27T01:21:18.306Z,53.70
2019-01-27T01:23:48.418Z,53.70
2019-01-27T01:26:18.770Z,53.60
2019-01-27T01:28:48.784Z,53.70
2019-01-27T01:31:18.831Z,53.80
2019-01-27T01:33:48.933Z,53.80
2019-01-27T01:36:18.940Z,53.70
2019-01-27T01:38:49.023Z,53.70
2019-01-27T01:41:19.056Z,53.60
2019-01-27T01:43:49.075Z,53.70
2019-01-27T01:46:19.025Z,53.50
2019-01-27T01:48:49.051Z,53.60
2019-01-27T01:51:19.177Z,53.60
2019-01-27T01:53:49.753Z,53.50
2019-01-27T01:56:19.798Z,53.30
2019-01-27T01:58:50.200Z,53.40
2019-01-27T02:01:20.483Z,53.30
2019-01-27T02:03:50.460Z,53.40
2019-01-27T02:06:20.417Z,53.50
2019-01-27T02:08:50.433Z,53.50
2019-01-27T02:11:20.377Z,53.60
2019-01-27T02:13:50.288Z,53.50
2019-01-27T02:16:20.240Z,53.50
2019-01-27T02:18:50.401Z,53.50
2019-01-27T02:21:20.272Z,53.40
2019-01-27T02:23:50.586Z,53.40
2019-01-27T02:26:20.577Z,53.30
2019-01-27T02:28:50.689Z,53.30
2019-01-27T02:31:20.690Z,53.30
2019-01-27T02:33:50.730Z,53.30
2019-01-27T02:36:20.616Z,53.30
2019-01-27T02:38:50.491Z,53.30
2019-01-27T02:41:20.650Z,53.40
2019-01-27T02:43:50.701Z,53.30
2019-01-27T02:46:20.625Z,53.30
2019-01-27T02:48:50.656Z,53.30
2019-01-27T02:51:20.696Z,53.10
2019-01-27T02:53:50.726Z,53.10
2019-01-27T02:56:21.070Z,53.10
2019-01-27T02:58:51.151Z,53.10
2019-01-27T03:01:21.450Z,53.00
2019-01-27T03:03:52.511Z,53.00
2019-01-27T03:06:40.118Z,53.00
2019-01-27T03:09:14.983Z,53.00
2019-01-27T03:11:49.298Z,53.00
2019-01-27T03:14:20.692Z,53.00
2019-01-27T03:16:52.019Z,53.00
2019-01-27T03:19:23.049Z,53.10
2019-01-27T03:21:53.082Z,53.00
2019-01-27T03:24:23.153Z,53.00
2019-01-27T03:26:53.090Z,53.00
2019-01-27T03:29:23.150Z,53.00
2019-01-27T03:31:53.151Z,53.10
2019-01-27T03:34:23.197Z,53.10
2019-01-27T03:36:53.252Z,53.10
2019-01-27T03:39:23.284Z,53.00
2019-01-27T03:41:53.282Z,53.00
2019-01-27T03:44:23.300Z,53.00
2019-01-27T03:46:53.305Z,53.00
2019-01-27T03:49:23.382Z,53.00
2019-01-27T03:51:53.473Z,53.00
2019-01-27T03:54:23.544Z,53.00
2019-01-27T03:56:53.646Z,52.90
2019-01-27T03:59:23.805Z,52.90
2019-01-27T04:01:53.771Z,52.90
2019-01-27T04:04:23.827Z,52.80
2019-01-27T04:06:54.377Z,52.80
2019-01-27T04:09:24.434Z,52.50
2019-01-27T04:11:54.607Z,52.60
2019-01-27T04:14:24.665Z,52.60
2019-01-27T04:16:54.998Z,52.60
2019-01-27T04:19:24.855Z,52.70
2019-01-27T04:21:54.857Z,52.60
2019-01-27T04:24:24.849Z,52.60
2019-01-27T04:26:54.727Z,52.60
2019-01-27T04:29:24.629Z,52.60
2019-01-27T04:31:54.682Z,52.50
2019-01-27T04:34:25.021Z,52.50
2019-01-27T04:36:54.991Z,52.50
2019-01-27T04:39:24.936Z,52.60
2019-01-27T04:41:54.893Z,52.50
2019-01-27T04:44:24.838Z,52.50
2019-01-27T04:46:54.753Z,52.40
2019-01-27T04:49:24.631Z,52.30
2019-01-27T04:51:54.505Z,52.30
2019-01-27T04:54:24.893Z,52.40
2019-01-27T04:56:55.050Z,53.00
2019-01-27T04:59:25.028Z,52.40
2019-01-27T05:01:55.203Z,52.40
2019-01-27T05:04:33.920Z,52.40
2019-01-27T05:07:03.908Z,52.40
2019-01-27T05:09:33.953Z,52.30
2019-01-27T05:12:03.913Z,52.30
2019-01-27T05:14:34.093Z,52.30
2019-01-27T05:17:04.060Z,52.30
2019-01-27T05:19:34.579Z,52.30
2019-01-27T05:22:04.574Z,52.20
2019-01-27T05:24:34.592Z,52.20
2019-01-27T05:27:04.674Z,52.10
2019-01-27T05:29:35.719Z,52.20
2019-01-27T05:32:05.711Z,52.30
2019-01-27T05:34:35.707Z,52.30
2019-01-27T05:37:05.726Z,52.30
2019-01-27T05:39:35.786Z,52.40
2019-01-27T05:42:05.792Z,52.40
2019-01-27T05:44:35.803Z,52.40
2019-01-27T05:47:05.704Z,52.40
2019-01-27T05:49:35.598Z,52.50
2019-01-27T05:52:05.534Z,52.50
2019-01-27T05:54:35.597Z,52.50
2019-01-27T05:57:05.558Z,52.50
2019-01-27T05:59:35.400Z,52.60
2019-01-27T06:02:05.494Z,52.40
2019-01-27T06:04:35.352Z,52.40
2019-01-27T06:07:05.427Z,52.50
2019-01-27T06:09:35.355Z,52.50
2019-01-27T06:12:05.354Z,52.50
2019-01-27T06:14:35.532Z,52.50
2019-01-27T06:17:05.885Z,52.50
2019-01-27T06:19:35.848Z,52.50
2019-01-27T06:22:05.791Z,52.60
2019-01-27T06:24:35.728Z,52.40
2019-01-27T06:27:05.723Z,52.40
2019-01-27T06:29:35.730Z,52.30
2019-01-27T06:32:05.730Z,52.30
2019-01-27T06:34:35.624Z,52.30
2019-01-27T06:37:05.659Z,52.30
2019-01-27T06:39:35.730Z,52.30
2019-01-27T06:42:05.691Z,52.30
2019-01-27T06:44:36.013Z,52.20
2019-01-27T06:47:06.052Z,52.30
2019-01-27T06:49:35.952Z,52.30
2019-01-27T06:52:05.849Z,52.30
2019-01-27T06:54:36.038Z,52.30
2019-01-27T06:57:05.905Z,52.30
2019-01-27T06:59:47.357Z,52.30
2019-01-27T07:02:29.564Z,52.30
2019-01-27T07:05:04.379Z,52.30
2019-01-27T07:07:42.283Z,52.40
2019-01-27T07:10:49.243Z,52.40
2019-01-27T07:13:44.283Z,52.40
2019-01-27T07:16:43.039Z,52.50
2019-01-27T07:19:42.862Z,52.50
2019-01-27T07:22:41.151Z,52.50
2019-01-27T07:25:28.774Z,52.50
2019-01-27T07:28:18.881Z,52.60
2019-01-27T07:31:07.976Z,52.70
2019-01-27T07:33:50.153Z,52.70
2019-01-27T07:36:38.702Z,52.70
2019-01-27T07:39:14.040Z,52.70
2019-01-27T07:41:52.144Z,52.80
2019-01-27T07:44:27.516Z,52.80
2019-01-27T07:47:03.310Z,53.00
2019-01-27T07:49:58.876Z,53.00
2019-01-27T07:52:38.719Z,53.00
2019-01-27T07:55:26.281Z,53.00
2019-01-27T07:58:44.040Z,53.00
2019-01-27T08:01:28.208Z,53.10
2019-01-27T08:04:24.258Z,53.10
2019-01-27T08:07:13.002Z,53.10
2019-01-27T08:10:00.899Z,53.10
2019-01-27T08:12:55.914Z,53.20
2019-01-27T08:15:47.708Z,53.20
2019-01-27T08:18:48.869Z,53.10
2019-01-27T08:21:37.892Z,53.10
2019-01-27T08:24:20.996Z,53.00
2019-01-27T08:27:10.046Z,53.20
2019-01-27T08:30:02.022Z,53.20
2019-01-27T08:32:46.849Z,53.30
2019-01-27T08:35:34.644Z,53.30
2019-01-27T08:38:32.513Z,53.30
2019-01-27T08:41:24.365Z,53.20
2019-01-27T08:44:13.328Z,53.30
2019-01-27T08:46:50.735Z,53.20
2019-01-27T08:49:20.854Z,53.80
2019-01-27T08:51:50.895Z,53.20
2019-01-27T08:54:20.994Z,53.20
2019-01-27T08:56:51.907Z,53.50
2019-01-27T08:59:22.283Z,53.20
2019-01-27T09:02:11.392Z,53.30
2019-01-27T09:05:06.943Z,53.20
2019-01-27T09:07:53.236Z,53.20
2019-01-27T09:10:32.377Z,53.10
2019-01-27T09:13:28.646Z,53.10
2019-01-27T09:16:27.836Z,53.10
2019-01-27T09:19:15.931Z,53.30
2019-01-27T09:22:08.023Z,53.30
2019-01-27T09:25:03.524Z,53.30
2019-01-27T09:28:07.911Z,53.30
2019-01-27T09:30:50.659Z,53.90
2019-01-27T09:33:43.370Z,53.30
2019-01-27T09:36:32.559Z,53.20
2019-01-27T09:39:21.724Z,53.20
2019-01-27T09:42:14.126Z,53.10
2019-01-27T09:45:02.141Z,53.10
2019-01-27T09:48:07.103Z,53.10
2019-01-27T09:50:44.857Z,53.10
2019-01-27T09:53:23.110Z,53.00
2019-01-27T09:56:13.213Z,53.10
2019-01-27T09:59:08.650Z,53.20
2019-01-27T10:01:51.342Z,53.30
2019-01-27T10:04:35.280Z,53.20
2019-01-27T10:07:13.972Z,53.30
2019-01-27T10:10:00.400Z,53.30
2019-01-27T10:13:04.659Z,53.40
2019-01-27T10:15:58.322Z,53.30
2019-01-27T10:18:38.733Z,53.40
2019-01-27T10:21:31.757Z,53.40
2019-01-27T10:24:10.831Z,53.50
2019-01-27T10:26:56.047Z,53.50
2019-01-27T10:29:58.324Z,53.40
2019-01-27T10:32:59.942Z,53.40
2019-01-27T10:35:43.756Z,53.40
2019-01-27T10:38:20.042Z,53.30
2019-01-27T10:40:59.144Z,53.40
2019-01-27T10:43:47.276Z,53.20
2019-01-27T10:46:37.017Z,53.30
2019-01-27T10:49:18.580Z,53.30
2019-01-27T10:51:57.532Z,53.40
2019-01-27T10:54:36.805Z,53.30
2019-01-27T10:57:21.820Z,53.30
2019-01-27T11:00:05.640Z,53.30
2019-01-27T11:02:49.964Z,53.20
2019-01-27T11:05:42.102Z,53.20
2019-01-27T11:08:40.014Z,53.20
2019-01-27T11:11:31.841Z,52.90
2019-01-27T11:14:13.530Z,53.10
2019-01-27T11:17:00.076Z,52.90
2019-01-27T11:19:58.420Z,53.00
2019-01-27T11:22:56.495Z,53.10
2019-01-27T11:25:59.961Z,53.30
2019-01-27T11:28:56.265Z,53.00
2019-01-27T11:31:50.827Z,53.00
2019-01-27T11:34:43.778Z,53.20
2019-01-27T11:37:37.657Z,53.20
2019-01-27T11:40:42.903Z,53.20
2019-01-27T11:43:32.196Z,53.00
2019-01-27T11:46:15.807Z,52.80
2019-01-27T11:49:06.109Z,51.30
2019-01-27T11:51:49.932Z,50.40
2019-01-27T11:54:22.740Z,50.20
2019-01-27T11:56:53.803Z,49.40
2019-01-27T11:59:25.599Z,48.70
2019-01-27T12:01:58.112Z,48.20
2019-01-27T12:04:30.675Z,48.80
2019-01-27T12:07:01.730Z,48.70
2019-01-27T12:09:33.234Z,48.60
2019-01-27T12:12:04.638Z,48.90
2019-01-27T12:14:36.414Z,48.90
2019-01-27T12:17:07.094Z,48.80
2019-01-27T12:19:40.760Z,48.70
2019-01-27T12:22:16.848Z,47.90
2019-01-27T12:24:47.095Z,48.00
2019-01-27T12:27:18.548Z,47.70
2019-01-27T12:29:50.233Z,46.80
2019-01-27T12:32:22.320Z,45.80
2019-01-27T12:34:53.484Z,45.60
2019-01-27T12:37:24.472Z,45.10
2019-01-27T12:39:57.440Z,44.80
2019-01-27T12:42:29.532Z,44.30
2019-01-27T12:45:00.949Z,44.30
2019-01-27T12:47:33.050Z,44.10
2019-01-27T12:50:08.409Z,43.90
2019-01-27T12:52:40.426Z,44.10
2019-01-27T12:55:13.582Z,44.20
2019-01-27T12:57:45.975Z,44.10
2019-01-27T13:00:20.200Z,44.20
2019-01-27T13:02:53.210Z,44.50
2019-01-27T13:05:24.607Z,44.90
2019-01-27T13:07:56.752Z,44.70
2019-01-27T13:10:30.875Z,44.80
2019-01-27T13:13:02.856Z,44.60
2019-01-27T13:15:35.626Z,44.60
2019-01-27T13:18:06.931Z,44.10
2019-01-27T13:20:39.131Z,43.30
2019-01-27T13:23:11.134Z,43.50
2019-01-27T13:25:43.035Z,43.60
2019-01-27T13:28:15.143Z,43.80
2019-01-27T13:30:47.827Z,43.70
2019-01-27T13:33:19.893Z,43.60
2019-01-27T13:35:51.435Z,43.60
2019-01-27T13:38:24.389Z,43.80
2019-01-27T13:40:56.790Z,43.30
2019-01-27T13:43:29.070Z,42.90
2019-01-27T13:45:59.812Z,43.10
2019-01-27T13:48:34.544Z,42.90
2019-01-27T13:51:05.971Z,42.90
2019-01-27T13:53:37.624Z,42.80
2019-01-27T13:56:08.973Z,42.60
2019-01-27T13:58:39.705Z,42.40
2019-01-27T14:01:11.148Z,42.50
2019-01-27T14:03:42.582Z,42.20
2019-01-27T14:06:12.851Z,42.40
2019-01-27T14:08:43.350Z,42.40
2019-01-27T14:11:14.527Z,42.60
2019-01-27T14:13:45.186Z,42.90
2019-01-27T14:16:16.279Z,42.90
2019-01-27T14:18:47.604Z,42.70
2019-01-27T14:21:19.021Z,43.00
2019-01-27T14:23:49.729Z,43.10
2019-01-27T14:26:20.665Z,43.20
2019-01-27T14:28:52.094Z,43.40
2019-01-27T14:31:24.139Z,43.50
2019-01-27T14:33:55.060Z,43.60
2019-01-27T14:36:25.459Z,43.80
2019-01-27T14:38:56.219Z,44.00
2019-01-27T14:41:27.087Z,44.10
2019-01-27T14:43:58.243Z,44.20
2019-01-27T14:46:29.272Z,44.20
2019-01-27T14:48:59.902Z,44.10
2019-01-27T14:51:31.028Z,44.20
2019-01-27T14:54:02.251Z,44.20
2019-01-27T14:56:34.891Z,44.20
2019-01-27T14:59:06.197Z,44.20
2019-01-27T15:01:37.237Z,44.30
2019-01-27T15:04:08.423Z,44.30
2019-01-27T15:06:45.387Z,44.20
2019-01-27T15:09:18.133Z,44.10
2019-01-27T15:11:49.213Z,44.60
2019-01-27T15:14:21.482Z,43.90
2019-01-27T15:16:54.951Z,43.90
2019-01-27T15:19:26.350Z,43.90
2019-01-27T15:21:58.444Z,43.80
2019-01-27T15:24:30.308Z,43.80
2019-01-27T15:27:02.026Z,43.80
2019-01-27T15:29:34.948Z,44.00
2019-01-27T15:32:06.902Z,44.00
2019-01-27T15:34:37.869Z,44.10
2019-01-27T15:37:09.009Z,43.90
2019-01-27T15:39:46.241Z,44.10
2019-01-27T15:42:19.107Z,44.20
2019-01-27T15:44:50.306Z,44.80
2019-01-27T15:47:21.345Z,44.30
2019-01-27T15:49:52.312Z,44.50
2019-01-27T15:52:23.616Z,44.80
2019-01-27T15:54:54.653Z,44.90
2019-01-27T15:57:25.687Z,45.10
2019-01-27T15:59:57.344Z,45.20
2019-01-27T16:02:30.617Z,45.20
2019-01-27T16:05:03.306Z,45.30
2019-01-27T16:07:34.946Z,45.40
2019-01-27T16:10:07.432Z,45.40
2019-01-27T16:12:38.799Z,45.50
2019-01-27T16:15:13.091Z,45.50
2019-01-27T16:17:45.844Z,45.50
2019-01-27T16:20:18.366Z,45.50
2019-01-27T16:23:12.326Z,45.60
2019-01-27T16:25:43.778Z,45.60
2019-01-27T16:28:16.247Z,45.70
2019-01-27T16:31:16.492Z,45.70
2019-01-27T16:34:12.200Z,45.80
2019-01-27T16:36:49.875Z,45.80
2019-01-27T16:39:24.910Z,45.80
2019-01-27T16:41:56.194Z,45.60
2019-01-27T16:44:29.317Z,46.30
2019-01-27T16:47:01.687Z,45.70
2019-01-27T16:49:34.197Z,45.80
2019-01-27T16:52:07.610Z,46.70
2019-01-27T16:54:41.450Z,46.80
2019-01-27T16:57:15.174Z,46.90
2019-01-27T16:59:46.856Z,46.90
2019-01-27T17:02:19.120Z,46.80
2019-01-27T17:04:53.671Z,46.90
2019-01-27T17:07:25.485Z,46.90
2019-01-27T17:09:59.198Z,46.90
2019-01-27T17:12:30.751Z,46.90
2019-01-27T17:15:02.376Z,46.90
2019-01-27T17:17:34.012Z,47.00
2019-01-27T17:20:07.021Z,47.00
2019-01-27T17:22:39.107Z,47.10
2019-01-27T17:25:12.247Z,47.10
2019-01-27T17:27:44.669Z,47.20
2019-01-27T17:30:17.597Z,47.30
2019-01-27T17:32:48.410Z,47.30
2019-01-27T17:35:20.285Z,46.80
2019-01-27T17:37:52.986Z,48.00
2019-01-27T17:40:26.140Z,47.40
2019-01-27T17:42:57.933Z,47.40
2019-01-27T17:45:30.116Z,47.40
2019-01-27T17:48:06.202Z,47.50
2019-01-27T17:50:38.310Z,47.60
2019-01-27T17:53:11.888Z,47.50
2019-01-27T17:55:44.723Z,47.60
2019-01-27T17:58:54.185Z,47.70
2019-01-27T18:01:39.969Z,47.80
2019-01-27T18:04:37.075Z,48.30
2019-01-27T18:07:33.335Z,48.10
2019-01-27T18:10:26.189Z,47.70
2019-01-27T18:13:09.693Z,47.80
2019-01-27T18:15:41.653Z,47.80
2019-01-27T18:18:13.627Z,47.80
2019-01-27T18:20:45.265Z,47.90
2019-01-27T18:23:18.502Z,47.90
2019-01-27T18:25:50.758Z,48.00
2019-01-27T18:28:24.253Z,47.90
2019-01-27T18:31:01.012Z,47.40
2019-01-27T18:33:34.064Z,47.90
2019-01-27T18:36:06.785Z,47.90
2019-01-27T18:38:39.092Z,47.90
2019-01-27T18:41:11.655Z,47.90
2019-01-27T18:43:46.723Z,48.00
2019-01-27T18:46:20.209Z,48.00
2019-01-27T18:48:53.373Z,47.90
2019-01-27T18:51:27.052Z,48.10
2019-01-27T18:54:25.532Z,48.10
2019-01-27T18:57:12.165Z,48.20
2019-01-27T19:00:13.277Z,47.60
2019-01-27T19:02:57.733Z,48.10
2019-01-27T19:06:03.681Z,48.00
2019-01-27T19:08:49.451Z,48.10
2019-01-27T19:11:32.655Z,48.10
2019-01-27T19:14:29.770Z,48.20
2019-01-27T19:17:21.337Z,48.20
2019-01-27T19:20:33.591Z,48.20
2019-01-27T19:23:18.138Z,48.40
2019-01-27T19:26:14.316Z,48.20
2019-01-27T19:29:19.515Z,48.30
2019-01-27T19:32:11.241Z,48.30
2019-01-27T19:35:07.797Z,48.30
2019-01-27T19:38:06.970Z,48.40
2019-01-27T19:41:00.246Z,48.40
2019-01-27T19:43:52.073Z,48.40
2019-01-27T19:46:41.018Z,48.40
2019-01-27T19:49:36.619Z,48.30
2019-01-27T19:52:28.075Z,48.30
2019-01-27T19:55:31.024Z,48.30
2019-01-27T19:58:23.821Z,48.40
2019-01-27T20:01:22.982Z,48.30
2019-01-27T20:04:18.864Z,48.30
2019-01-27T20:07:12.786Z,48.40
2019-01-27T20:10:06.158Z,48.30
2019-01-27T20:19:49.857Z,48.20
2019-01-27T20:22:40.642Z,48.20
2019-01-27T20:25:34.200Z,48.10
2019-01-27T20:28:15.915Z,48.00
2019-01-27T20:31:23.211Z,48.10
2019-01-27T20:34:12.061Z,48.00
2019-01-27T20:37:09.174Z,48.10
2019-01-27T20:40:21.349Z,48.20
2019-01-27T20:43:09.566Z,48.20
2019-01-27T20:45:57.658Z,48.00
2019-01-27T20:48:50.524Z,48.00
2019-01-27T20:51:39.662Z,48.00
2019-01-27T20:54:31.615Z,48.20
2019-01-27T20:57:18.887Z,48.20
2019-01-27T21:00:01.335Z,48.20
2019-01-27T21:02:44.521Z,48.10
2019-01-27T21:05:24.677Z,48.10
2019-01-27T21:08:23.160Z,48.10
2019-01-27T21:11:15.752Z,48.00
2019-01-27T21:14:08.881Z,48.00
2019-01-27T21:16:56.095Z,48.00
2019-01-27T21:19:34.793Z,48.00
2019-01-27T21:22:08.164Z,47.90
2019-01-27T21:24:41.160Z,48.00
2019-01-27T21:27:14.986Z,48.00
2019-01-27T21:29:48.945Z,48.00
2019-01-27T21:32:21.211Z,48.20
2019-01-27T21:34:54.833Z,48.20
2019-01-27T21:37:28.802Z,48.10
2019-01-27T21:40:07.187Z,48.00
2019-01-27T21:42:47.034Z,48.10
2019-01-27T21:45:12.701Z,48.10
2019-01-27T21:47:44.164Z,48.10
2019-01-27T21:50:18.566Z,48.20
2019-01-27T21:52:51.169Z,48.50
2019-01-27T21:55:22.582Z,48.50
2019-01-27T21:57:55.030Z,48.60
2019-01-27T22:00:26.280Z,48.60
2019-01-27T22:02:57.234Z,48.60
2019-01-27T22:05:28.305Z,48.60
2019-01-27T22:07:59.083Z,48.50
2019-01-27T22:10:29.183Z,48.50
2019-01-27T22:12:59.399Z,48.50
2019-01-27T22:15:31.921Z,48.50
2019-01-27T22:18:01.892Z,48.50
2019-01-27T22:20:32.137Z,48.50
2019-01-27T22:23:01.921Z,48.50
2019-01-27T22:25:31.912Z,48.60
2019-01-27T22:28:01.870Z,48.50
2019-01-27T22:30:31.798Z,48.50
2019-01-27T22:33:01.637Z,48.50
2019-01-27T22:35:31.480Z,48.50
2019-01-27T22:38:01.735Z,48.60
2019-01-27T22:40:31.677Z,48.60
2019-01-27T22:43:01.539Z,48.60
2019-01-27T22:45:31.389Z,48.70
2019-01-27T22:48:01.375Z,48.70
2019-01-27T22:50:31.335Z,48.70
2019-01-27T22:53:01.209Z,48.70
2019-01-27T22:55:31.136Z,48.80
2019-01-27T22:58:01.115Z,48.90
2019-01-27T23:00:52.265Z,48.90
2019-01-27T23:03:22.193Z,48.90
2019-01-27T23:05:52.414Z,49.10
2019-01-27T23:08:22.444Z,49.00
2019-01-27T23:10:52.410Z,49.10
2019-01-27T23:13:22.694Z,49.30
2019-01-27T23:15:52.619Z,49.50
2019-01-27T23:18:22.548Z,49.60
2019-01-27T23:20:52.479Z,49.70
2019-01-27T23:23:22.292Z,50.10
2019-01-27T23:25:52.236Z,50.10
2019-01-27T23:28:22.047Z,50.20
2019-01-27T23:30:52.131Z,50.20
2019-01-27T23:33:22.049Z,50.20
2019-01-27T23:35:54.450Z,50.30
2019-01-27T23:38:24.391Z,50.40
2019-01-27T23:40:54.558Z,50.30
2019-01-27T23:43:24.354Z,50.30
2019-01-27T23:45:54.307Z,50.30
2019-01-27T23:48:24.056Z,50.20
2019-01-27T23:50:53.915Z,50.20
2019-01-27T23:53:23.896Z,50.20
2019-01-27T23:55:54.980Z,50.20
2019-01-27T23:58:24.935Z,50.20
